Airport Name : Orland

Other Name : Orland

ICAO : ENOL

IATA : OLA

FAA :

Latitude : 63.698908

Longitude : 9.604003

Country : Norway

Local Date and Time : 22 May 2024 21:55

 

TAF (Terminal Aerodrome Forecast)

TAF ENOL 221700Z 2218/2318 34008KT CAVOK BECMG 2222/2301 13012KT BECMG 2311/2313 34010KT

 

METAR (METeorological Aerodrome Report)

ENOL 221950Z 21003KT CAVOK 16/11 Q1015 NOSIG

ENOL 221920Z 30003KT CAVOK 17/11 Q1015 NOSIG

ENOL 221850Z 28003KT CAVOK 18/11 Q1015 NOSIG

ENOL 221820Z 35005KT CAVOK 22/10 Q1015 NOSIG

ENOL 221750Z 35008KT CAVOK 23/08 Q1015 NOSIG

ENOL 221720Z 34009KT CAVOK 23/08 Q1015 NOSIG

ENOL 221650Z 35010KT CAVOK 23/09 Q1015 NOSIG

ENOL 221620Z 35010KT CAVOK 23/09 Q1015 NOSIG